sensor_id;sensor_type;location;lat;lon;timestamp;pressure;altitude;pressure_sealevel;temperature;humidity
16120;BME280;12670;53.502;10.252;2023-02-16T00:01:46;101874.22;;;5.51;100.00
16120;BME280;12670;53.502;10.252;2023-02-16T00:04:49;101876.84;;;5.63;100.00
16120;BME280;12670;53.502;10.252;2023-02-16T00:07:53;101875.09;;;5.64;100.00
16120;BME280;12670;53.502;10.252;2023-02-16T00:10:55;101877.72;;;5.59;100.00
16120;BME280;12670;53.502;10.252;2023-02-16T00:14:29;101874.19;;;5.65;100.00
16120;BME280;12670;53.502;10.252;2023-02-16T00:17:32;101865.41;;;5.62;100.00
16120;BME280;12670;53.502;10.252;2023-02-16T00:20:34;101865.44;;;5.55;100.00
16120;BME280;12670;53.502;10.252;2023-02-16T00:23:37;101861.00;;;5.68;100.00
16120;BME280;12670;53.502;10.252;2023-02-16T00:26:40;101868.03;;;5.62;100.00
16120;BME280;12670;53.502;10.252;2023-02-16T00:29:44;101870.75;;;5.47;100.00
16120;BME280;12670;53.502;10.252;2023-02-16T00:32:47;101868.16;;;5.20;100.00
16120;BME280;12670;53.502;10.252;2023-02-16T00:35:49;101872.53;;;5.25;100.00
16120;BME280;12670;53.502;10.252;2023-02-16T00:38:52;101861.13;;;5.26;100.00
16120;BME280;12670;53.502;10.252;2023-02-16T00:41:57;101854.97;;;5.40;100.00
16120;BME280;12670;53.502;10.252;2023-02-16T00:45:03;101859.38;;;5.27;100.00
16120;BME280;12670;53.502;10.252;2023-02-16T00:48:07;101858.53;;;5.11;100.00
16120;BME280;12670;53.502;10.252;2023-02-16T00:51:10;101850.63;;;5.34;100.00
16120;BME280;12670;53.502;10.252;2023-02-16T00:54:26;101855.84;;;5.43;100.00
16120;BME280;12670;53.502;10.252;2023-02-16T00:57:35;101854.97;;;5.41;100.00
16120;BME280;12670;53.502;10.252;2023-02-16T01:00:41;101842.69;;;5.40;100.00
16120;BME280;12670;53.502;10.252;2023-02-16T01:03:45;101847.09;;;5.32;100.00
16120;BME280;12670;53.502;10.252;2023-02-16T01:06:48;101836.56;;;5.26;100.00
16120;BME280;12670;53.502;10.252;2023-02-16T01:10:09;101840.94;;;5.38;100.00
16120;BME280;12670;53.502;10.252;2023-02-16T01:13:30;101837.47;;;5.23;100.00
16120;BME280;12670;53.502;10.252;2023-02-16T01:16:38;101841.84;;;5.20;100.00
16120;BME280;12670;53.502;10.252;2023-02-16T01:19:41;101837.44;;;5.32;100.00
16120;BME280;12670;53.502;10.252;2023-02-16T01:22:43;101838.34;;;5.21;100.00
16120;BME280;12670;53.502;10.252;2023-02-16T01:25:46;101843.59;;;5.30;100.00
16120;BME280;12670;53.502;10.252;2023-02-16T01:28:49;101845.34;;;5.31;100.00
16120;BME280;12670;53.502;10.252;2023-02-16T01:31:53;101840.97;;;5.28;100.00
16120;BME280;12670;53.502;10.252;2023-02-16T01:34:56;101827.78;;;5.42;100.00
16120;BME280;12670;53.502;10.252;2023-02-16T01:37:59;101836.56;;;5.30;100.00
16120;BME280;12670;53.502;10.252;2023-02-16T01:41:06;101840.03;;;5.45;100.00
16120;BME280;12670;53.502;10.252;2023-02-16T01:44:12;101830.38;;;5.47;100.00
16120;BME280;12670;53.502;10.252;2023-02-16T01:47:30;101830.38;;;5.51;100.00
16120;BME280;12670;53.502;10.252;2023-02-16T01:50:41;101820.75;;;5.41;100.00
16120;BME280;12670;53.502;10.252;2023-02-16T01:53:50;101826.00;;;5.49;100.00
16120;BME280;12670;53.502;10.252;2023-02-16T01:56:57;101828.59;;;5.56;100.00
16120;BME280;12670;53.502;10.252;2023-02-16T02:00:21;101825.13;;;5.51;100.00
16120;BME280;12670;53.502;10.252;2023-02-16T02:03:26;101814.56;;;5.50;100.00
16120;BME280;12670;53.502;10.252;2023-02-16T02:06:47;101804.91;;;5.55;100.00
16120;BME280;12670;53.502;10.252;2023-02-16T02:09:59;101817.19;;;5.57;100.00
16120;BME280;12670;53.502;10.252;2023-02-16T02:13:06;101824.16;;;5.71;100.00
16120;BME280;12670;53.502;10.252;2023-02-16T02:16:16;101819.00;;;5.37;100.00
16120;BME280;12670;53.502;10.252;2023-02-16T02:19:21;101825.09;;;5.53;100.00
16120;BME280;12670;53.502;10.252;2023-02-16T02:26:48;101827.69;;;5.64;100.00
16120;BME280;12670;53.502;10.252;2023-02-16T02:30:20;101821.63;;;5.39;100.00
16120;BME280;12670;53.502;10.252;2023-02-16T02:33:37;101822.47;;;5.57;100.00
16120;BME280;12670;53.502;10.252;2023-02-16T02:36:49;101816.28;;;5.60;100.00
16120;BME280;12670;53.502;10.252;2023-02-16T02:40:00;101812.88;;;5.40;100.00
16120;BME280;12670;53.502;10.252;2023-02-16T02:43:13;101820.69;;;5.61;100.00
16120;BME280;12670;53.502;10.252;2023-02-16T02:46:23;101815.47;;;5.44;100.00
16120;BME280;12670;53.502;10.252;2023-02-16T02:49:27;101817.25;;;5.33;100.00
16120;BME280;12670;53.502;10.252;2023-02-16T02:52:30;101814.63;;;5.41;100.00
16120;BME280;12670;53.502;10.252;2023-02-16T02:55:35;101817.19;;;5.56;100.00
16120;BME280;12670;53.502;10.252;2023-02-16T02:59:03;101811.94;;;5.54;100.00
16120;BME280;12670;53.502;10.252;2023-02-16T03:02:25;101810.25;;;5.26;100.00
16120;BME280;12670;53.502;10.252;2023-02-16T03:05:30;101800.63;;;5.26;100.00
16120;BME280;12670;53.502;10.252;2023-02-16T03:08:38;101802.34;;;5.32;100.00
16120;BME280;12670;53.502;10.252;2023-02-16T03:11:42;101801.50;;;5.21;100.00
16120;BME280;12670;53.502;10.252;2023-02-16T03:15:06;101797.97;;;5.26;100.00
16120;BME280;12670;53.502;10.252;2023-02-16T03:18:10;101791.00;;;5.24;100.00
16120;BME280;12670;53.502;10.252;2023-02-16T03:21:32;101789.22;;;5.26;100.00
16120;BME280;12670;53.502;10.252;2023-02-16T03:24:53;101779.66;;;5.05;100.00
16120;BME280;12670;53.502;10.252;2023-02-16T03:28:13;101793.56;;;5.41;100.00
16120;BME280;12670;53.502;10.252;2023-02-16T03:31:37;101788.31;;;5.34;100.00
16120;BME280;12670;53.502;10.252;2023-02-16T03:34:40;101783.91;;;5.41;100.00
16120;BME280;12670;53.502;10.252;2023-02-16T03:37:43;101795.31;;;5.46;100.00
16120;BME280;12670;53.502;10.252;2023-02-16T03:40:48;101799.72;;;5.32;100.00
16120;BME280;12670;53.502;10.252;2023-02-16T03:43:51;101792.66;;;5.48;100.00
16120;BME280;12670;53.502;10.252;2023-02-16T03:46:55;101789.19;;;5.37;100.00
16120;BME280;12670;53.502;10.252;2023-02-16T03:49:58;101776.94;;;5.34;100.00
16120;BME280;12670;53.502;10.252;2023-02-16T03:53:01;101789.25;;;5.14;100.00
16120;BME280;12670;53.502;10.252;2023-02-16T03:56:08;101777.81;;;5.25;100.00
16120;BME280;12670;53.502;10.252;2023-02-16T03:59:10;101779.53;;;5.35;100.00
16120;BME280;12670;53.502;10.252;2023-02-16T04:02:14;101776.97;;;5.22;100.00
16120;BME280;12670;53.502;10.252;2023-02-16T04:05:17;101775.19;;;5.21;100.00
16120;BME280;12670;53.502;10.252;2023-02-16T04:08:20;101769.91;;;5.31;100.00
16120;BME280;12670;53.502;10.252;2023-02-16T04:11:23;101772.53;;;5.33;100.00
16120;BME280;12670;53.502;10.252;2023-02-16T04:14:43;101770.00;;;4.92;100.00
16120;BME280;12670;53.502;10.252;2023-02-16T04:17:47;101762.03;;;5.21;100.00
16120;BME280;12670;53.502;10.252;2023-02-16T04:20:50;101746.31;;;5.08;100.00
16120;BME280;12670;53.502;10.252;2023-02-16T04:23:55;101754.19;;;5.08;100.00
16120;BME280;12670;53.502;10.252;2023-02-16T04:26:58;101746.25;;;5.24;100.00
16120;BME280;12670;53.502;10.252;2023-02-16T04:30:00;101750.66;;;5.22;100.00
16120;BME280;12670;53.502;10.252;2023-02-16T04:33:04;101750.66;;;5.22;100.00
16120;BME280;12670;53.502;10.252;2023-02-16T04:36:08;101756.69;;;5.39;100.00
16120;BME280;12670;53.502;10.252;2023-02-16T04:39:11;101755.94;;;5.08;100.00
16120;BME280;12670;53.502;10.252;2023-02-16T04:42:13;101754.28;;;4.81;100.00
16120;BME280;12670;53.502;10.252;2023-02-16T04:45:16;101761.25;;;4.90;100.00
16120;BME280;12670;53.502;10.252;2023-02-16T04:48:20;101763.03;;;4.81;100.00
16120;BME280;12670;53.502;10.252;2023-02-16T04:51:23;101751.56;;;5.13;100.00
16120;BME280;12670;53.502;10.252;2023-02-16T04:54:26;101748.00;;;5.20;100.00
16120;BME280;12670;53.502;10.252;2023-02-16T04:57:29;101753.34;;;5.06;100.00
16120;BME280;12670;53.502;10.252;2023-02-16T05:00:31;101762.97;;;5.07;100.00
16120;BME280;12670;53.502;10.252;2023-02-16T05:03:38;101751.56;;;5.08;100.00
16120;BME280;12670;53.502;10.252;2023-02-16T05:06:41;101748.94;;;5.12;100.00
16120;BME280;12670;53.502;10.252;2023-02-16T05:09:44;101757.69;;;5.12;100.00
16120;BME280;12670;53.502;10.252;2023-02-16T05:12:46;101755.91;;;5.16;100.00
16120;BME280;12670;53.502;10.252;2023-02-16T05:16:06;101759.44;;;5.15;100.00
16120;BME280;12670;53.502;10.252;2023-02-16T05:19:11;101757.75;;;5.00;100.00
16120;BME280;12670;53.502;10.252;2023-02-16T05:22:14;101755.00;;;5.29;100.00
16120;BME280;12670;53.502;10.252;2023-02-16T05:25:17;101749.75;;;5.24;100.00
16120;BME280;12670;53.502;10.252;2023-02-16T05:28:19;101756.78;;;5.25;100.00
16120;BME280;12670;53.502;10.252;2023-02-16T05:31:23;101761.97;;;5.44;100.00
16120;BME280;12670;53.502;10.252;2023-02-16T05:34:27;101754.16;;;5.15;100.00
16120;BME280;12670;53.502;10.252;2023-02-16T05:37:30;101754.09;;;5.33;100.00
16120;BME280;12670;53.502;10.252;2023-02-16T05:40:32;101748.84;;;5.36;100.00
16120;BME280;12670;53.502;10.252;2023-02-16T05:43:35;101744.53;;;5.14;100.00
16120;BME280;12670;53.502;10.252;2023-02-16T05:46:39;101747.19;;;5.09;100.00
16120;BME280;12670;53.502;10.252;2023-02-16T05:49:43;101754.19;;;5.18;100.00
16120;BME280;12670;53.502;10.252;2023-02-16T05:52:46;101762.03;;;5.28;100.00
16120;BME280;12670;53.502;10.252;2023-02-16T05:55:49;101757.66;;;5.24;100.00
16120;BME280;12670;53.502;10.252;2023-02-16T05:58:51;101762.84;;;5.38;100.00
16120;BME280;12670;53.502;10.252;2023-02-16T06:01:55;101764.69;;;5.24;100.00
16120;BME280;12670;53.502;10.252;2023-02-16T06:04:59;101766.38;;;5.35;100.00
16120;BME280;12670;53.502;10.252;2023-02-16T06:08:01;101773.41;;;5.30;100.00
16120;BME280;12670;53.502;10.252;2023-02-16T06:11:04;101770.81;;;5.23;100.00
16120;BME280;12670;53.502;10.252;2023-02-16T06:14:27;101768.19;;;5.29;100.00
16120;BME280;12670;53.502;10.252;2023-02-16T06:17:30;101767.25;;;5.36;100.00
16120;BME280;12670;53.502;10.252;2023-02-16T06:20:33;101766.44;;;5.28;100.00
16120;BME280;12670;53.502;10.252;2023-02-16T06:23:36;101750.63;;;5.31;100.00
16120;BME280;12670;53.502;10.252;2023-02-16T06:26:39;101747.16;;;5.17;100.00
16120;BME280;12670;53.502;10.252;2023-02-16T06:29:42;101759.44;;;5.15;100.00
16120;BME280;12670;53.502;10.252;2023-02-16T06:32:45;101754.13;;;5.30;100.00
16120;BME280;12670;53.502;10.252;2023-02-16T06:35:49;101755.03;;;5.20;100.00
16120;BME280;12670;53.502;10.252;2023-02-16T06:38:51;101755.91;;;5.28;100.00
16120;BME280;12670;53.502;10.252;2023-02-16T06:41:54;101757.72;;;5.11;100.00
16120;BME280;12670;53.502;10.252;2023-02-16T06:44:57;101755.09;;;5.06;100.00
16120;BME280;12670;53.502;10.252;2023-02-16T06:47:59;101745.47;;;4.91;100.00
16120;BME280;12670;53.502;10.252;2023-02-16T06:51:04;101742.84;;;4.96;100.00
16120;BME280;12670;53.502;10.252;2023-02-16T06:54:07;101749.84;;;4.95;100.00
16120;BME280;12670;53.502;10.252;2023-02-16T06:57:10;101741.84;;;5.27;100.00
16120;BME280;12670;53.502;10.252;2023-02-16T07:00:14;101761.19;;;5.16;100.00
16120;BME280;12670;53.502;10.252;2023-02-16T07:03:16;101776.09;;;5.15;100.00
16120;BME280;12670;53.502;10.252;2023-02-16T07:06:22;101769.97;;;5.12;100.00
16120;BME280;12670;53.502;10.252;2023-02-16T07:09:25;101761.16;;;5.29;100.00
16120;BME280;12670;53.502;10.252;2023-02-16T07:12:28;101758.44;;;5.46;100.00
16120;BME280;12670;53.502;10.252;2023-02-16T07:15:30;101774.13;;;5.66;100.00
16120;BME280;12670;53.502;10.252;2023-02-16T07:18:33;101760.94;;;5.74;100.00
16120;BME280;12670;53.502;10.252;2023-02-16T07:21:37;101755.69;;;5.68;100.00
16120;BME280;12670;53.502;10.252;2023-02-16T07:24:40;101751.25;;;5.77;100.00
16120;BME280;12670;53.502;10.252;2023-02-16T07:27:42;101747.69;;;5.87;100.00
16120;BME280;12670;53.502;10.252;2023-02-16T07:30:45;101754.81;;;5.72;100.00
16120;BME280;12670;53.502;10.252;2023-02-16T07:33:48;101754.69;;;5.90;100.00
16120;BME280;12670;53.502;10.252;2023-02-16T07:36:52;101745.09;;;5.80;100.00
16120;BME280;12670;53.502;10.252;2023-02-16T07:39:54;101745.13;;;5.74;100.00
16120;BME280;12670;53.502;10.252;2023-02-16T07:42:58;101752.25;;;5.56;100.00
16120;BME280;12670;53.502;10.252;2023-02-16T07:46:01;101747.75;;;5.78;100.00
16120;BME280;12670;53.502;10.252;2023-02-16T07:49:04;101749.53;;;5.75;100.00
16120;BME280;12670;53.502;10.252;2023-02-16T07:52:08;101765.41;;;5.59;100.00
16120;BME280;12670;53.502;10.252;2023-02-16T07:55:10;101754.91;;;5.52;100.00
16120;BME280;12670;53.502;10.252;2023-02-16T07:58:13;101751.47;;;5.33;100.00
16120;BME280;12670;53.502;10.252;2023-02-16T08:01:28;101764.69;;;5.24;100.00
16120;BME280;12670;53.502;10.252;2023-02-16T08:04:31;101750.69;;;5.09;100.00
16120;BME280;12670;53.502;10.252;2023-02-16T08:07:35;101745.34;;;5.34;100.00
16120;BME280;12670;53.502;10.252;2023-02-16T08:10:37;101748.69;;;5.70;100.00
16120;BME280;12670;53.502;10.252;2023-02-16T08:13:40;101749.53;;;5.69;100.00
16120;BME280;12670;53.502;10.252;2023-02-16T08:16:43;101752.16;;;5.69;100.00
16120;BME280;12670;53.502;10.252;2023-02-16T08:19:46;101755.75;;;5.58;100.00
16120;BME280;12670;53.502;10.252;2023-02-16T08:22:52;101764.41;;;5.83;100.00
16120;BME280;12670;53.502;10.252;2023-02-16T08:25:55;101759.91;;;6.02;100.00
16120;BME280;12670;53.502;10.252;2023-02-16T08:28:59;101763.47;;;5.91;100.00
16120;BME280;12670;53.502;10.252;2023-02-16T08:32:02;101752.09;;;5.84;100.00
16120;BME280;12670;53.502;10.252;2023-02-16T08:35:08;101752.06;;;5.90;100.00
16120;BME280;12670;53.502;10.252;2023-02-16T08:38:12;101746.78;;;5.96;100.00
16120;BME280;12670;53.502;10.252;2023-02-16T08:41:15;101755.59;;;5.84;100.00
16120;BME280;12670;53.502;10.252;2023-02-16T08:44:19;101753.91;;;5.77;100.00
16120;BME280;12670;53.502;10.252;2023-02-16T08:47:22;101741.63;;;5.75;100.00
16120;BME280;12670;53.502;10.252;2023-02-16T08:50:24;101744.06;;;6.07;100.00
16120;BME280;12670;53.502;10.252;2023-02-16T08:53:28;101755.63;;;5.80;100.00
16120;BME280;12670;53.502;10.252;2023-02-16T08:56:33;101748.47;;;6.03;100.00
16120;BME280;12670;53.502;10.252;2023-02-16T08:59:36;101742.28;;;6.12;100.00
16120;BME280;12670;53.502;10.252;2023-02-16T09:02:39;101745.72;;;6.20;100.00
16120;BME280;12670;53.502;10.252;2023-02-16T09:05:42;101737.84;;;6.15;100.00
16120;BME280;12670;53.502;10.252;2023-02-16T09:08:49;101735.97;;;6.34;100.00
16120;BME280;12670;53.502;10.252;2023-02-16T09:11:53;101728.13;;;6.28;100.00
16120;BME280;12670;53.502;10.252;2023-02-16T09:14:55;101727.78;;;6.62;100.00
16120;BME280;12670;53.502;10.252;2023-02-16T09:17:58;101728.66;;;6.62;100.00
16120;BME280;12670;53.502;10.252;2023-02-16T09:21:03;101723.44;;;6.59;100.00
16120;BME280;12670;53.502;10.252;2023-02-16T09:24:08;101731.06;;;6.88;100.00
16120;BME280;12670;53.502;10.252;2023-02-16T09:27:12;101742.78;;;6.58;100.00
16120;BME280;12670;53.502;10.252;2023-02-16T09:30:15;101743.47;;;6.77;100.00
16120;BME280;12670;53.502;10.252;2023-02-16T09:33:19;101758.31;;;6.89;100.00
16120;BME280;12670;53.502;10.252;2023-02-16T09:36:22;101750.38;;;6.92;100.00
16120;BME280;12670;53.502;10.252;2023-02-16T09:39:26;101761.69;;;7.00;100.00
16120;BME280;12670;53.502;10.252;2023-02-16T09:42:34;101749.13;;;7.24;100.00
16120;BME280;12670;53.502;10.252;2023-02-16T09:45:46;101746.88;;;6.88;100.00
16120;BME280;12670;53.502;10.252;2023-02-16T09:48:53;101756.56;;;6.85;100.00
16120;BME280;12670;53.502;10.252;2023-02-16T09:52:03;101765.25;;;6.99;100.00
16120;BME280;12670;53.502;10.252;2023-02-16T09:55:11;101778.19;;;7.19;100.00
16120;BME280;12670;53.502;10.252;2023-02-16T09:58:18;101778.03;;;7.33;100.00
16120;BME280;12670;53.502;10.252;2023-02-16T10:01:26;101778.56;;;7.62;99.84
16120;BME280;12670;53.502;10.252;2023-02-16T10:04:41;101784.63;;;7.67;99.65
16120;BME280;12670;53.502;10.252;2023-02-16T10:07:54;101767.13;;;7.60;98.88
16120;BME280;12670;53.502;10.252;2023-02-16T10:11:03;101770.75;;;7.53;98.84
16120;BME280;12670;53.502;10.252;2023-02-16T10:14:33;101776.97;;;7.51;99.51
16120;BME280;12670;53.502;10.252;2023-02-16T10:17:42;101778.50;;;7.67;99.53
16120;BME280;12670;53.502;10.252;2023-02-16T10:20:48;101780.41;;;7.57;99.08
16120;BME280;12670;53.502;10.252;2023-02-16T10:23:55;101778.63;;;7.56;99.38
16120;BME280;12670;53.502;10.252;2023-02-16T10:27:04;101786.41;;;7.67;98.35
16120;BME280;12670;53.502;10.252;2023-02-16T10:30:12;101787.94;;;7.86;100.00
16120;BME280;12670;53.502;10.252;2023-02-16T10:33:23;101780.88;;;7.87;98.97
16120;BME280;12670;53.502;10.252;2023-02-16T10:36:41;101776.16;;;8.07;100.00
16120;BME280;12670;53.502;10.252;2023-02-16T10:39:57;101773.50;;;8.10;99.13
16120;BME280;12670;53.502;10.252;2023-02-16T10:43:11;101772.19;;;8.39;98.19
16120;BME280;12670;53.502;10.252;2023-02-16T10:46:21;101772.03;;;8.48;98.75
16120;BME280;12670;53.502;10.252;2023-02-16T10:49:25;101786.19;;;8.44;98.60
16120;BME280;12670;53.502;10.252;2023-02-16T10:52:31;101768.59;;;8.43;100.00
16120;BME280;12670;53.502;10.252;2023-02-16T10:55:36;101781.19;;;8.24;100.00
16120;BME280;12670;53.502;10.252;2023-02-16T10:58:40;101780.69;;;7.99;100.00
16120;BME280;12670;53.502;10.252;2023-02-16T11:01:45;101773.13;;;8.33;100.00
16120;BME280;12670;53.502;10.252;2023-02-16T11:04:50;101777.50;;;8.39;100.00
16120;BME280;12670;53.502;10.252;2023-02-16T11:07:54;101771.00;;;8.58;100.00
16120;BME280;12670;53.502;10.252;2023-02-16T11:11:06;101780.34;;;8.77;100.00
16120;BME280;12670;53.502;10.252;2023-02-16T11:14:20;101773.53;;;8.64;100.00
16120;BME280;12670;53.502;10.252;2023-02-16T11:17:24;101773.53;;;8.64;100.00
16120;BME280;12670;53.502;10.252;2023-02-16T11:20:29;101766.63;;;8.54;100.00
16120;BME280;12670;53.502;10.252;2023-02-16T11:23:33;101761.13;;;8.66;100.00
16120;BME280;12670;53.502;10.252;2023-02-16T11:26:36;101764.69;;;8.65;100.00
16120;BME280;12670;53.502;10.252;2023-02-16T11:29:40;101775.34;;;8.62;100.00
16120;BME280;12670;53.502;10.252;2023-02-16T11:32:43;101775.47;;;8.53;100.00
16120;BME280;12670;53.502;10.252;2023-02-16T11:35:46;101771.72;;;8.66;100.00
16120;BME280;12670;53.502;10.252;2023-02-16T11:38:58;101760.22;;;8.69;100.00
16120;BME280;12670;53.502;10.252;2023-02-16T11:42:04;101751.47;;;8.65;100.00
16120;BME280;12670;53.502;10.252;2023-02-16T11:45:21;101749.88;;;8.55;100.00
16120;BME280;12670;53.502;10.252;2023-02-16T11:48:28;101760.38;;;8.60;100.00
16120;BME280;12670;53.502;10.252;2023-02-16T11:51:33;101754.09;;;8.65;100.00
16120;BME280;12670;53.502;10.252;2023-02-16T11:54:36;101757.38;;;8.79;100.00
16120;BME280;12670;53.502;10.252;2023-02-16T11:57:49;101766.50;;;8.63;100.00
16120;BME280;12670;53.502;10.252;2023-02-16T12:01:02;101762.03;;;8.65;100.00
16120;BME280;12670;53.502;10.252;2023-02-16T12:04:15;101752.09;;;8.79;100.00
16120;BME280;12670;53.502;10.252;2023-02-16T12:07:29;101756.75;;;8.65;100.00
16120;BME280;12670;53.502;10.252;2023-02-16T12:10:38;101759.13;;;8.79;100.00
16120;BME280;12670;53.502;10.252;2023-02-16T12:13:45;101751.09;;;8.85;100.00
16120;BME280;12670;53.502;10.252;2023-02-16T12:16:58;101742.69;;;8.63;100.00
16120;BME280;12670;53.502;10.252;2023-02-16T12:20:13;101753.88;;;8.77;100.00
16120;BME280;12670;53.502;10.252;2023-02-16T12:23:27;101745.78;;;8.85;100.00
16120;BME280;12670;53.502;10.252;2023-02-16T12:26:38;101738.88;;;8.78;100.00
16120;BME280;12670;53.502;10.252;2023-02-16T12:29:48;101735.19;;;8.87;100.00
16120;BME280;12670;53.502;10.252;2023-02-16T12:33:08;101736.84;;;8.92;100.00
16120;BME280;12670;53.502;10.252;2023-02-16T12:36:32;101729.00;;;8.88;100.00
16120;BME280;12670;53.502;10.252;2023-02-16T12:39:43;101726.44;;;8.83;100.00
16120;BME280;12670;53.502;10.252;2023-02-16T12:43:00;101726.28;;;8.92;100.00
16120;BME280;12670;53.502;10.252;2023-02-16T12:46:10;101722.09;;;8.80;100.00
16120;BME280;12670;53.502;10.252;2023-02-16T12:49:19;101719.75;;;8.64;100.00
16120;BME280;12670;53.502;10.252;2023-02-16T12:52:31;101712.44;;;8.76;100.00
16120;BME280;12670;53.502;10.252;2023-02-16T12:55:39;101715.22;;;8.70;100.00
16120;BME280;12670;53.502;10.252;2023-02-16T12:58:46;101714.34;;;8.70;100.00
16120;BME280;12670;53.502;10.252;2023-02-16T13:01:54;101715.97;;;8.77;100.00
16120;BME280;12670;53.502;10.252;2023-02-16T13:05:03;101708.00;;;8.78;100.00
16120;BME280;12670;53.502;10.252;2023-02-16T13:08:16;101709.19;;;8.62;100.00
16120;BME280;12670;53.502;10.252;2023-02-16T13:11:24;101697.53;;;8.72;100.00
16120;BME280;12670;53.502;10.252;2023-02-16T13:14:34;101698.19;;;8.84;100.00
16120;BME280;12670;53.502;10.252;2023-02-16T13:17:43;101688.41;;;8.89;100.00
16120;BME280;12670;53.502;10.252;2023-02-16T13:20:52;101698.28;;;8.80;100.00
16120;BME280;12670;53.502;10.252;2023-02-16T13:24:02;101693.94;;;8.76;100.00
16120;BME280;12670;53.502;10.252;2023-02-16T13:27:21;101688.41;;;8.89;100.00
16120;BME280;12670;53.502;10.252;2023-02-16T13:30:40;101683.09;;;8.89;100.00
16120;BME280;12670;53.502;10.252;2023-02-16T13:33:59;101682.97;;;8.95;100.00
16120;BME280;12670;53.502;10.252;2023-02-16T13:37:17;101686.25;;;9.09;100.00
16120;BME280;12670;53.502;10.252;2023-02-16T13:40:45;101667.72;;;9.07;100.00
16120;BME280;12670;53.502;10.252;2023-02-16T13:43:55;101672.25;;;9.01;100.00
16120;BME280;12670;53.502;10.252;2023-02-16T13:47:01;101659.81;;;9.06;100.00
16120;BME280;12670;53.502;10.252;2023-02-16T13:50:07;101661.63;;;9.04;100.00
16120;BME280;12670;53.502;10.252;2023-02-16T13:53:19;101653.75;;;9.01;100.00
16120;BME280;12670;53.502;10.252;2023-02-16T13:56:34;101653.81;;;8.96;100.00
16120;BME280;12670;53.502;10.252;2023-02-16T13:59:57;101651.84;;;9.07;100.00
16120;BME280;12670;53.502;10.252;2023-02-16T14:03:02;101659.84;;;9.04;100.00
16120;BME280;12670;53.502;10.252;2023-02-16T14:06:28;101653.66;;;9.05;100.00
16120;BME280;12670;53.502;10.252;2023-02-16T14:09:45;101650.91;;;9.08;100.00
16120;BME280;12670;53.502;10.252;2023-02-16T14:12:49;101662.69;;;8.95;100.00
16120;BME280;12670;53.502;10.252;2023-02-16T14:15:53;101659.94;;;9.00;100.00
16120;BME280;12670;53.502;10.252;2023-02-16T14:18:59;101661.41;;;9.15;100.00
16120;BME280;12670;53.502;10.252;2023-02-16T14:22:08;101665.19;;;9.03;100.00
16120;BME280;12670;53.502;10.252;2023-02-16T14:25:33;101658.34;;;8.93;100.00
16120;BME280;12670;53.502;10.252;2023-02-16T14:29:07;101650.88;;;9.12;100.00
16120;BME280;12670;53.502;10.252;2023-02-16T14:32:21;101646.28;;;9.20;100.00
16120;BME280;12670;53.502;10.252;2023-02-16T14:35:29;101652.44;;;9.20;100.00
16120;BME280;12670;53.502;10.252;2023-02-16T14:38:35;101642.91;;;9.52;100.00
16120;BME280;12670;53.502;10.252;2023-02-16T14:41:40;101633.41;;;9.43;100.00
16120;BME280;12670;53.502;10.252;2023-02-16T14:44:53;101640.97;;;9.20;100.00
16120;BME280;12670;53.502;10.252;2023-02-16T14:48:03;101632.59;;;8.99;100.00
16120;BME280;12670;53.502;10.252;2023-02-16T14:51:28;101633.47;;;9.00;100.00
16120;BME280;12670;53.502;10.252;2023-02-16T14:54:50;101626.09;;;9.14;100.00
16120;BME280;12670;53.502;10.252;2023-02-16T14:58:04;101637.28;;;9.28;100.00
16120;BME280;12670;53.502;10.252;2023-02-16T15:01:16;101632.31;;;9.13;100.00
16120;BME280;12670;53.502;10.252;2023-02-16T15:04:26;101630.78;;;9.01;100.00
16120;BME280;12670;53.502;10.252;2023-02-16T15:07:29;101630.72;;;9.04;100.00
16120;BME280;12670;53.502;10.252;2023-02-16T15:10:32;101631.19;;;9.23;100.00
16120;BME280;12670;53.502;10.252;2023-02-16T15:13:36;101616.22;;;9.22;100.00
16120;BME280;12670;53.502;10.252;2023-02-16T15:16:40;101616.28;;;9.21;100.00
16120;BME280;12670;53.502;10.252;2023-02-16T15:19:43;101613.16;;;9.00;100.00
16120;BME280;12670;53.502;10.252;2023-02-16T15:22:48;101609.78;;;8.94;100.00
16120;BME280;12670;53.502;10.252;2023-02-16T15:25:54;101613.97;;;9.04;100.00
16120;BME280;12670;53.502;10.252;2023-02-16T15:29:01;101615.25;;;8.86;100.00
16120;BME280;12670;53.502;10.252;2023-02-16T15:32:05;101622.84;;;9.03;100.00
16120;BME280;12670;53.502;10.252;2023-02-16T15:35:11;101633.38;;;9.04;100.00
16120;BME280;12670;53.502;10.252;2023-02-16T15:38:20;101638.81;;;8.97;100.00
16120;BME280;12670;53.502;10.252;2023-02-16T15:41:26;101641.06;;;8.73;100.00
16120;BME280;12670;53.502;10.252;2023-02-16T15:44:33;101638.25;;;8.82;100.00
16120;BME280;12670;53.502;10.252;2023-02-16T15:47:36;101629.09;;;8.99;100.00
16120;BME280;12670;53.502;10.252;2023-02-16T15:50:39;101635.41;;;8.92;100.00
16120;BME280;12670;53.502;10.252;2023-02-16T15:53:48;101649.53;;;8.91;100.00
16120;BME280;12670;53.502;10.252;2023-02-16T15:56:52;101646.88;;;8.92;100.00
16120;BME280;12670;53.502;10.252;2023-02-16T15:59:57;101651.63;;;8.75;100.00
16120;BME280;12670;53.502;10.252;2023-02-16T16:03:01;101641.19;;;8.67;100.00
16120;BME280;12670;53.502;10.252;2023-02-16T16:06:06;101643.22;;;8.53;100.00
16120;BME280;12670;53.502;10.252;2023-02-16T16:09:16;101643.47;;;8.41;100.00
16120;BME280;12670;53.502;10.252;2023-02-16T16:12:22;101633.88;;;8.32;100.00